Time;durP1;ratioP1;P1;durP2;ratioP2;P2;SDS_P1;SDS_P2;PMS_P1;PMS_P2;Temp;Humidity;BMP_temperature;BMP_pressure;BME280_temperature;BME280_humidity;BME280_pressure;Samples;Min_cycle;Max_cycle;Signal;HPM_P1;HPM_P2
2022/01/22 00:00:39;;;;;;;9.40;4.58;;;;;;;-2.34;68.62;99966.59;1647007;87;25430;-71
2022/01/22 00:03:07;;;;;;;12.37;5.17;;;;;;;-2.39;68.64;99972.31;1646998;87;25822;-71
2022/01/22 00:05:34;;;;;;;11.35;4.37;;;;;;;-2.47;68.63;99964.18;1646605;87;25716;-71
2022/01/22 00:08:00;;;;;;;9.95;4.83;;;;;;;-2.52;68.81;99972.01;1623954;87;25684;-70
2022/01/22 00:10:27;;;;;;;8.78;4.17;;;;;;;-2.58;69.02;99977.72;1646927;85;26142;-70
2022/01/22 00:15:24;;;;;;;10.23;5.78;;;;;;;-2.69;69.13;99980.66;1660464;86;28136;-70
2022/01/22 00:17:52;;;;;;;17.25;5.03;;;;;;;-2.74;69.19;99983.19;1660653;86;25678;-71
2022/01/22 00:20:22;;;;;;;11.43;4.45;;;;;;;-2.79;69.50;99976.94;1665918;84;25731;-71
2022/01/22 00:22:50;;;;;;;11.05;3.92;;;;;;;-2.83;69.71;99976.09;1660211;86;25754;-70
2022/01/22 00:25:19;;;;;;;13.15;4.83;;;;;;;-2.88;69.63;99977.79;1666105;86;25466;-70
2022/01/22 00:27:49;;;;;;;9.98;4.03;;;;;;;-2.92;69.74;99976.64;1660104;86;27391;-70
2022/01/22 00:30:20;;;;;;;13.85;6.35;;;;;;;-2.97;69.93;99979.17;1666003;86;25716;-70
2022/01/22 00:32:47;;;;;;;15.13;5.87;;;;;;;-3.03;70.16;99969.78;1660263;86;25682;-70
2022/01/22 00:35:14;;;;;;;16.00;6.35;;;;;;;-3.07;70.09;99982.36;1665895;86;25671;-70
2022/01/22 00:37:43;;;;;;;10.35;4.40;;;;;;;-3.10;70.69;99977.52;1660278;86;25556;-70
2022/01/22 00:40:11;;;;;;;10.55;4.50;;;;;;;-3.13;70.76;99991.19;1666251;86;26941;-70
2022/01/22 00:42:42;;;;;;;13.55;5.58;;;;;;;-3.16;70.78;99985.84;1659124;86;25693;-71
2022/01/22 00:45:11;;;;;;;14.73;5.45;;;;;;;-3.19;70.96;99983.65;1666094;86;25648;-71
2022/01/22 00:47:38;;;;;;;11.80;4.57;;;;;;;-3.23;71.25;99984.61;1660442;86;25600;-71
2022/01/22 00:50:08;;;;;;;11.75;5.28;;;;;;;-3.26;71.24;99973.68;1665555;84;25475;-71
2022/01/22 00:52:35;;;;;;;10.45;5.10;;;;;;;-3.30;71.40;99981.27;1656921;86;27916;-71
2022/01/22 00:55:01;;;;;;;17.77;5.37;;;;;;;-3.32;71.58;99985.98;1665691;86;25718;-71
2022/01/22 00:57:28;;;;;;;13.93;5.72;;;;;;;-3.35;71.83;99979.81;1660070;86;25723;-70
2022/01/22 00:59:55;;;;;;;13.28;4.58;;;;;;;-3.38;72.06;99988.19;1665942;86;26232;-71
2022/01/22 01:02:22;;;;;;;14.65;4.75;;;;;;;-3.41;72.28;99989.95;1660287;86;25595;-72
2022/01/22 01:04:49;;;;;;;13.08;5.30;;;;;;;-3.41;72.53;99989.95;1665725;86;27892;-70
2022/01/22 01:07:15;;;;;;;13.03;5.58;;;;;;;-3.44;72.75;99979.32;1660239;86;25402;-70
2022/01/22 01:09:42;;;;;;;14.95;5.12;;;;;;;-3.44;72.91;99989.07;1665947;86;25677;-70
2022/01/22 01:12:12;;;;;;;13.93;5.55;;;;;;;-3.46;73.21;99982.68;1660014;86;25618;-70
2022/01/22 01:14:46;;;;;;;13.25;5.37;;;;;;;-3.45;73.59;99979.02;1665362;85;25632;-70
2022/01/22 01:17:12;;;;;;;11.48;5.25;;;;;;;-3.47;73.74;99971.83;1661581;86;27521;-71
2022/01/22 01:35:53;;;;;;;13.95;5.78;;;;;;;-3.57;74.30;99960.45;1662508;86;25716;-71
2022/01/22 01:38:22;;;;;;;11.00;5.70;;;;;;;-3.57;74.76;99968.39;1662318;86;26255;-71
2022/01/22 01:40:58;;;;;;;13.65;6.47;;;;;;;-3.58;74.75;99965.97;1667370;86;25655;-71
2022/01/22 01:43:28;;;;;;;14.60;6.87;;;;;;;-3.60;74.80;99958.25;1660994;86;27373;-71
2022/01/22 01:45:51;;;;;;;16.75;6.92;;;;;;;-3.60;74.62;99958.78;1666694;85;25656;-71
2022/01/22 01:48:23;;;;;;;15.10;7.40;;;;;;;-3.62;75.01;99964.28;1637081;86;25679;-70
2022/01/22 01:50:46;;;;;;;14.85;7.35;;;;;;;-3.62;75.20;99955.03;1666778;86;25738;-71
2022/01/22 01:53:41;;;;;;;13.78;6.60;;;;;;;-3.62;75.10;99964.81;1662502;86;25611;-71
2022/01/22 01:56:01;;;;;;;13.53;7.10;;;;;;;-3.59;75.09;99969.66;1657675;86;27363;-71
2022/01/22 01:58:17;;;;;;;11.43;7.00;;;;;;;-3.57;75.61;99957.81;1665036;86;25316;-71
2022/01/22 02:00:45;;;;;;;17.37;7.75;;;;;;;-3.55;75.80;99970.81;1662328;86;25647;-71
2022/01/22 02:03:13;;;;;;;14.45;8.13;;;;;;;-3.55;75.96;99968.16;1630387;88;25626;-71
2022/01/22 02:05:40;;;;;;;15.90;7.92;;;;;;;-3.52;75.99;99962.44;1630682;88;25756;-71
2022/01/22 02:08:09;;;;;;;15.13;7.47;;;;;;;-3.52;76.22;99960.29;1630772;88;27307;-71
2022/01/22 02:10:43;;;;;;;15.18;6.40;;;;;;;-3.51;76.37;99962.71;1630264;88;25759;-71
2022/01/22 02:24:06;;;;;;;11.25;5.53;;;;;;;-3.43;77.06;99950.50;1630682;88;25644;-71
2022/01/22 02:26:33;;;;;;;10.60;4.70;;;;;;;-3.41;76.80;99942.34;1630401;88;25666;-72
2022/01/22 02:28:59;;;;;;;12.37;5.22;;;;;;;-3.39;76.74;99950.36;1662128;86;25611;-71
2022/01/22 02:31:41;;;;;;;12.78;4.62;;;;;;;-3.39;76.69;99943.75;1662361;86;25677;-71
2022/01/22 02:34:37;;;;;;;11.15;4.83;;;;;;;-3.39;76.68;99942.92;1669617;85;25816;-70
2022/01/22 02:37:05;;;;;;;10.38;4.55;;;;;;;-3.39;76.58;99943.75;1667303;85;25484;-70
2022/01/22 02:39:45;;;;;;;17.52;5.40;;;;;;;-3.39;76.77;99943.75;1669206;84;25936;-70
2022/01/22 02:42:09;;;;;;;7.42;4.30;;;;;;;-3.39;76.87;99949.03;1669228;85;26176;-70
2022/01/22 02:44:44;;;;;;;10.18;4.65;;;;;;;-3.38;76.82;99947.19;1669878;85;25671;-70
2022/01/22 02:47:07;;;;;;;9.30;4.13;;;;;;;-3.38;76.66;99947.98;1668698;84;28174;-71
2022/01/22 02:49:34;;;;;;;9.60;4.33;;;;;;;-3.38;76.74;99952.48;1669679;85;25703;-71
2022/01/22 02:52:09;;;;;;;13.15;4.22;;;;;;;-3.38;76.69;99955.92;1669939;85;25719;-71
2022/01/22 02:54:39;;;;;;;10.60;4.12;;;;;;;-3.39;76.52;99950.86;1669547;85;26492;-71
2022/01/22 02:57:08;;;;;;;7.97;4.12;;;;;;;-3.41;76.79;99960.33;1647236;85;25774;-71
2022/01/22 02:59:35;;;;;;;12.55;5.17;;;;;;;-3.40;76.74;99959.31;1669896;85;28032;-71
2022/01/22 03:02:03;;;;;;;10.58;5.12;;;;;;;-3.39;76.75;99962.27;1648851;85;25508;-71
2022/01/22 03:04:31;;;;;;;11.70;5.08;;;;;;;-3.39;76.82;99967.55;1668373;84;25636;-71
2022/01/22 03:06:58;;;;;;;13.05;4.87;;;;;;;-3.39;76.81;99964.08;1722712;83;25666;-71
2022/01/22 03:09:29;;;;;;;10.98;4.80;;;;;;;-3.40;76.98;99961.95;1722503;83;25639;-71
2022/01/22 03:20:34;;;;;;;8.73;4.30;;;;;;;-3.39;76.88;99949.03;1722618;83;26185;-71
2022/01/22 03:27:51;;;;;;;14.73;5.17;;;;;;;-3.42;76.92;99971.96;1694792;84;25521;-71
2022/01/22 03:30:18;;;;;;;11.85;4.85;;;;;;;-3.42;76.98;99982.54;1730281;82;25584;-71
2022/01/22 03:32:50;;;;;;;13.15;4.80;;;;;;;-3.42;77.16;99980.42;1729794;82;26311;-71
2022/01/22 03:37:45;;;;;;;17.62;4.78;;;;;;;-3.45;77.07;99973.73;1730248;82;27548;-71
2022/01/22 03:40:14;;;;;;;18.30;5.20;;;;;;;-3.45;77.01;99980.86;1729921;82;25763;-70
2022/01/22 03:42:42;;;;;;;13.98;5.15;;;;;;;-3.44;77.12;99978.49;1730301;82;25648;-70
2022/01/22 03:45:11;;;;;;;12.25;4.58;;;;;;;-3.43;77.16;99984.08;1705698;82;25679;-71
2022/01/22 03:47:39;;;;;;;;;;;;;;;-3.43;77.30;99976.15;1732489;82;25706;-72
2022/01/22 03:50:07;;;;;;;9.25;4.03;;;;;;;-3.42;77.26;99979.09;1717312;83;28043;-72
2022/01/22 03:52:33;;;;;;;15.25;4.67;;;;;;;-3.42;77.28;99990.47;1717205;83;25827;-72
2022/01/22 03:55:00;;;;;;;13.18;4.45;;;;;;;-3.42;77.23;99993.64;1717046;83;25700;-72
2022/01/22 03:57:26;;;;;;;9.98;4.95;;;;;;;-3.41;77.29;99993.91;1717944;82;25606;-71
2022/01/22 03:59:55;;;;;;;10.72;4.95;;;;;;;-3.42;77.10;100001.05;1742759;82;25438;-71
2022/01/22 04:05:08;;;;;;;13.48;4.83;;;;;;;-3.43;77.09;99997.30;1742791;82;25626;-70
2022/01/22 04:10:04;;;;;;;11.28;4.62;;;;;;;-3.47;77.17;100003.56;1742534;82;25665;-71
2022/01/22 04:12:45;;;;;;;10.88;4.42;;;;;;;-3.49;77.26;100006.95;1743016;82;25670;-71
2022/01/22 04:15:07;;;;;;;9.25;4.35;;;;;;;-3.49;77.32;100000.34;1741017;82;26871;-71
2022/01/22 04:24:49;;;;;;;8.58;4.08;;;;;;;-3.49;77.30;100002.98;1742509;82;25402;-72
2022/01/22 04:25:37;;;;;;;10.78;3.85;;;;;;;-3.51;77.65;100011.62;1742769;82;25848;-69
2022/01/22 04:28:01;;;;;;;10.90;4.40;;;;;;;-3.50;77.69;100007.17;1742425;82;28333;-69
2022/01/22 04:30:28;;;;;;;8.05;3.70;;;;;;;-3.47;77.85;100014.14;1742649;82;25627;-71
2022/01/22 04:32:55;;;;;;;12.15;4.67;;;;;;;-3.43;77.94;100013.97;1737475;81;25711;-70
2022/01/22 04:35:25;;;;;;;11.93;3.77;;;;;;;-3.39;78.08;100019.13;1704724;83;25570;-70
2022/01/22 04:37:52;;;;;;;7.05;3.85;;;;;;;-3.34;78.10;100018.44;1718682;83;25636;-71
2022/01/22 04:40:18;;;;;;;7.83;4.47;;;;;;;-3.28;78.16;100023.37;1718514;83;27328;-71
2022/01/22 04:42:45;;;;;;;13.55;4.92;;;;;;;-3.25;78.10;100014.47;1718622;83;25619;-72
2022/01/22 04:45:23;;;;;;;10.65;4.55;;;;;;;-3.21;78.08;100016.94;1718727;83;25391;-72
2022/01/22 04:47:55;;;;;;;16.80;4.87;;;;;;;-3.18;78.01;100026.28;1717735;82;25636;-71
2022/01/22 04:54:58;;;;;;;13.00;5.00;;;;;;;-3.13;77.89;100021.62;1707692;84;27334;-72
2022/01/22 04:55:26;;;;;;;13.45;5.05;;;;;;;-3.11;77.89;100030.95;1703714;84;25671;-72
2022/01/22 04:57:52;;;;;;;10.00;4.60;;;;;;;-3.09;77.94;100040.80;1707950;84;25695;-71
2022/01/22 05:00:19;;;;;;;11.60;4.22;;;;;;;-3.06;78.00;100044.32;1707587;83;25621;-72
2022/01/22 05:02:45;;;;;;;18.17;6.55;;;;;;;-3.04;78.02;100045.42;1685759;84;25676;-72
2022/01/22 05:05:12;;;;;;;15.53;6.30;;;;;;;-3.02;78.01;100049.97;1684194;84;27472;-71
2022/01/22 05:07:38;;;;;;;14.83;5.62;;;;;;;-2.98;78.02;100049.80;1707555;83;25708;-71
2022/01/22 05:10:26;;;;;;;16.85;5.78;;;;;;;-2.96;78.05;100043.78;1708003;84;25465;-72
2022/01/22 05:12:53;;;;;;;14.38;6.72;;;;;;;-2.93;78.07;100052.58;1689552;84;25637;-72
2022/01/22 05:15:22;;;;;;;12.13;5.17;;;;;;;-2.90;78.15;100056.10;1689265;84;25830;-71
2022/01/22 05:17:49;;;;;;;16.67;6.55;;;;;;;-2.88;78.08;100058.52;1689468;84;27385;-71
2022/01/22 05:20:28;;;;;;;14.07;5.75;;;;;;;-2.88;78.04;100059.35;1689468;84;25745;-72
2022/01/22 05:25:43;;;;;;;17.77;7.03;;;;;;;-2.83;78.11;100062.12;1689350;84;26388;-71
2022/01/22 05:28:30;;;;;;;16.02;6.65;;;;;;;-2.80;78.05;100062.70;1688366;84;25589;-71
2022/01/22 05:33:33;;;;;;;16.57;5.55;;;;;;;-2.78;78.02;100065.41;1689647;84;25533;-71
2022/01/22 05:38:28;;;;;;;13.65;6.72;;;;;;;-2.78;77.82;100068.58;1689237;84;25930;-71
2022/01/22 05:40:54;;;;;;;17.42;6.83;;;;;;;-2.77;77.78;100075.50;1689537;84;25543;-71
2022/01/22 05:43:20;;;;;;;14.03;6.33;;;;;;;-2.78;77.69;100083.14;1689520;84;27530;-72
2022/01/22 05:45:47;;;;;;;19.95;7.78;;;;;;;-2.77;77.64;100079.47;1689159;84;25587;-72
2022/01/22 05:48:14;;;;;;;15.72;7.85;;;;;;;-2.78;77.58;100080.48;1685842;84;25550;-72
2022/01/22 05:51:02;;;;;;;17.95;6.92;;;;;;;-2.78;77.54;100087.11;1711383;83;25636;-71
2022/01/22 06:01:12;;;;;;;12.98;6.17;;;;;;;-2.73;77.90;100105.25;1718443;83;25603;-72
2022/01/22 06:03:39;;;;;;;17.42;5.87;;;;;;;-2.72;78.02;100110.84;1718510;83;25766;-71
2022/01/22 06:06:06;;;;;;;15.93;6.42;;;;;;;-2.72;78.09;100112.69;1718428;83;25260;-72
2022/01/22 06:08:38;;;;;;;15.58;6.90;;;;;;;-2.71;78.12;100115.09;1716305;83;27403;-72
2022/01/22 06:11:08;;;;;;;17.30;7.45;;;;;;;-2.70;78.10;100113.27;1718213;82;25694;-71
2022/01/22 06:13:43;;;;;;;10.80;5.15;;;;;;;-2.69;78.13;100107.75;1718263;82;25688;-72
2022/01/22 06:15:58;;;;;;;15.30;6.35;;;;;;;-2.69;78.12;100118.34;1717174;82;25826;-71
2022/01/22 06:18:25;;;;;;;13.35;5.97;;;;;;;-2.69;78.03;100121.48;1718677;83;25589;-71
2022/01/22 06:20:52;;;;;;;12.78;6.33;;;;;;;-2.68;78.08;100121.79;1718519;82;27369;-71
2022/01/22 06:23:18;;;;;;;12.00;5.83;;;;;;;-2.69;78.12;100134.73;1718338;83;25485;-71
2022/01/22 06:25:45;;;;;;;12.03;5.47;;;;;;;-2.69;78.26;100142.17;1718620;83;25419;-72
2022/01/22 06:28:11;;;;;;;13.13;5.45;;;;;;;-2.68;78.37;100145.62;1718611;82;25933;-72
2022/01/22 06:30:37;;;;;;;8.85;5.15;;;;;;;-2.68;78.50;100151.72;1718316;83;25577;-72
2022/01/22 06:33:04;;;;;;;10.60;5.03;;;;;;;-2.67;78.54;100154.66;1718609;83;27316;-72
2022/01/22 06:35:30;;;;;;;12.28;5.25;;;;;;;-2.68;78.56;100158.34;1718508;83;25625;-72
2022/01/22 06:37:59;;;;;;;14.30;6.37;;;;;;;-2.67;78.75;100163.14;1714976;83;25550;-72
2022/01/22 06:42:51;;;;;;;14.25;5.78;;;;;;;-2.64;78.97;100167.95;1706103;83;25427;-72
2022/01/22 06:45:18;;;;;;;11.95;5.05;;;;;;;-2.61;79.11;100172.81;1718490;83;28095;-72
2022/01/22 06:47:45;;;;;;;17.10;4.90;;;;;;;-2.60;79.24;100170.99;1718544;83;25715;-71
2022/01/22 06:50:11;;;;;;;8.80;4.58;;;;;;;-2.63;79.32;100167.73;1718610;83;25612;-71
2022/01/22 06:52:39;;;;;;;13.28;5.30;;;;;;;-2.62;79.53;100175.19;1718303;83;25619;-72
2022/01/22 06:55:07;;;;;;;11.20;4.80;;;;;;;-2.62;79.54;100177.84;1718729;82;25712;-72
2022/01/22 06:57:34;;;;;;;16.60;6.22;;;;;;;-2.64;79.64;100180.70;1718556;82;27323;-72
2022/01/22 07:00:00;;;;;;;15.70;5.33;;;;;;;-2.63;79.76;100173.03;1718242;83;25739;-71
2022/01/22 07:02:28;;;;;;;11.60;5.70;;;;;;;-2.60;79.88;100185.56;1718611;83;26198;-71
2022/01/22 07:04:54;;;;;;;13.20;5.78;;;;;;;-2.58;79.94;100186.14;1718588;83;25743;-72
2022/01/22 07:07:20;;;;;;;11.53;4.30;;;;;;;-2.56;80.15;100189.36;1718344;83;25381;-72
2022/01/22 07:09:47;;;;;;;12.53;4.72;;;;;;;-2.54;80.31;100189.94;1718515;83;27984;-71
2022/01/22 07:12:13;;;;;;;9.03;4.42;;;;;;;-2.51;80.30;100190.82;1718426;82;25658;-72
2022/01/22 07:14:41;;;;;;;14.10;4.97;;;;;;;-2.49;80.30;100196.17;1718259;83;25425;-72
2022/01/22 07:17:09;;;;;;;12.82;4.83;;;;;;;-2.44;80.39;100202.13;1718545;83;25448;-73
2022/01/22 07:19:40;;;;;;;13.08;4.95;;;;;;;-2.43;80.47;100207.73;1716327;83;25699;-72
2022/01/22 07:22:10;;;;;;;10.68;4.22;;;;;;;-2.42;80.48;100204.03;1718388;82;27314;-72
2022/01/22 07:24:40;;;;;;;9.88;4.95;;;;;;;-2.41;80.55;100205.66;1718060;82;25732;-72
2022/01/22 07:27:07;;;;;;;11.03;4.53;;;;;;;-2.39;80.66;100208.88;1718654;82;25619;-72
2022/01/22 07:29:33;;;;;;;11.88;4.78;;;;;;;-2.37;80.73;100204.16;1718250;83;25690;-72
2022/01/22 07:32:02;;;;;;;10.18;4.47;;;;;;;-2.34;80.79;100213.52;1718670;83;25620;-72
2022/01/22 07:34:28;;;;;;;11.70;4.67;;;;;;;-2.32;80.88;100220.19;1718661;83;27443;-71
2022/01/22 07:36:55;;;;;;;11.12;4.67;;;;;;;-2.28;80.98;100217.92;1718351;83;25544;-71
2022/01/22 07:39:21;;;;;;;11.20;4.78;;;;;;;-2.24;81.02;100222.25;1718640;83;25614;-71
2022/01/22 07:41:48;;;;;;;12.10;5.40;;;;;;;-2.20;81.12;100225.53;1718595;82;25596;-71
2022/01/22 07:44:14;;;;;;;16.73;7.72;;;;;;;-2.13;81.26;100224.94;1718474;83;25723;-71
2022/01/22 07:46:41;;;;;;;11.43;6.08;;;;;;;-2.07;81.26;100222.69;1718577;83;27910;-71
2022/01/22 07:49:08;;;;;;;14.73;5.72;;;;;;;-1.99;81.30;100240.63;1718453;83;25689;-72
2022/01/22 07:51:34;;;;;;;11.25;4.97;;;;;;;-1.94;81.18;100250.03;1718411;83;25698;-72
2022/01/22 07:54:01;;;;;;;14.58;5.37;;;;;;;-1.91;81.08;100251.73;1718709;82;25452;-72
2022/01/22 07:56:27;;;;;;;9.30;4.50;;;;;;;-1.86;81.08;100260.84;1718608;83;25576;-72
2022/01/22 07:58:56;;;;;;;10.53;5.33;;;;;;;-1.81;81.05;100266.27;1718393;83;27896;-72
2022/01/22 08:01:22;;;;;;;11.57;4.40;;;;;;;-1.76;81.09;100264.54;1718283;82;25693;-72
2022/01/22 08:03:51;;;;;;;10.45;4.70;;;;;;;-1.71;81.21;100273.95;1718601;83;25599;-71
2022/01/22 08:06:17;;;;;;;11.33;4.67;;;;;;;-1.62;81.26;100274.95;1718197;83;25683;-72
2022/01/22 08:08:43;;;;;;;10.25;4.22;;;;;;;-1.60;81.15;100272.37;1718652;83;25700;-73
2022/01/22 08:11:10;;;;;;;9.50;3.62;;;;;;;-1.57;80.96;100287.80;1718818;83;27331;-74
2022/01/22 08:13:36;;;;;;;7.95;3.75;;;;;;;-1.54;81.05;100289.20;1719051;83;25718;-73
2022/01/22 08:16:03;;;;;;;9.50;3.72;;;;;;;-1.49;81.25;100293.84;1712194;83;25762;-73
2022/01/22 08:18:29;;;;;;;7.40;3.85;;;;;;;-1.45;81.35;100301.09;1687682;83;25792;-73
2022/01/22 08:20:56;;;;;;;7.42;3.50;;;;;;;-1.36;81.55;100310.34;1711689;83;25695;-73
2022/01/22 08:23:23;;;;;;;17.25;7.28;;;;;;;-1.26;81.63;100321.73;1727658;83;27364;-73
2022/01/22 08:25:50;;;;;;;19.32;7.67;;;;;;;-1.16;81.75;100330.42;1727612;83;25696;-73
2022/01/22 08:31:15;;;;;;;6.95;4.28;;;;;;;-0.79;82.39;100337.64;1727780;83;25747;-73
2022/01/22 08:35:52;;;;;;;9.68;4.55;;;;;;;-0.41;82.59;100340.81;1725457;83;25635;-73
2022/01/22 08:36:03;;;;;;;9.28;4.28;;;;;;;-0.03;82.32;100347.42;1723437;83;27916;-74
2022/01/22 08:38:31;;;;;;;11.22;4.80;;;;;;;0.26;82.16;100355.41;1727423;83;25408;-74
2022/01/22 08:40:58;;;;;;;9.25;4.30;;;;;;;0.47;80.87;100364.55;1727615;83;25744;-74
2022/01/22 08:43:26;;;;;;;9.25;4.42;;;;;;;0.87;82.40;100363.08;1727452;83;26187;-74
2022/01/22 08:45:53;;;;;;;8.85;4.12;;;;;;;1.39;80.91;100361.16;1727741;83;25329;-74
2022/01/22 08:48:21;;;;;;;7.87;3.85;;;;;;;1.55;78.75;100366.98;1727713;83;27891;-74
2022/01/22 08:50:48;;;;;;;9.83;3.53;;;;;;;1.66;78.12;100368.70;1727442;83;25707;-74
2022/01/22 08:53:14;;;;;;;10.03;4.03;;;;;;;1.69;76.82;100372.75;1727729;83;25471;-73
2022/01/22 08:55:41;;;;;;;8.10;3.72;;;;;;;1.67;76.23;100373.00;1727540;83;25622;-74
2022/01/22 08:58:08;;;;;;;6.65;3.30;;;;;;;1.75;75.79;100372.28;1727461;83;25558;-74
2022/01/22 09:00:37;;;;;;;9.38;3.45;;;;;;;1.76;74.83;100369.37;1727662;83;27318;-73
2022/01/22 09:03:04;;;;;;;6.70;3.47;;;;;;;1.76;74.52;100370.70;1686848;85;33258;-69
2022/01/22 09:05:35;;;;;;;8.03;3.27;;;;;;;1.67;73.29;100371.66;1655730;86;25722;-70
2022/01/22 09:07:59;;;;;;;7.58;2.98;;;;;;;1.53;73.08;100379.73;1646639;85;25636;-70
2022/01/22 09:10:25;;;;;;;6.83;3.25;;;;;;;1.43;73.10;100403.08;1635129;87;25739;-71
2022/01/22 09:12:52;;;;;;;5.72;3.10;;;;;;;1.31;72.71;100411.67;1636692;86;28202;-71
2022/01/22 09:15:19;;;;;;;5.10;3.22;;;;;;;1.18;72.71;100429.36;1637471;87;25901;-70
2022/01/22 09:17:48;;;;;;;6.37;2.65;;;;;;;1.12;72.86;100429.78;1624244;87;25738;-73
2022/01/22 09:20:31;;;;;;;5.65;2.67;;;;;;;1.08;72.54;100439.31;1620754;88;25885;-73
2022/01/22 09:22:44;;;;;;;3.58;2.30;;;;;;;0.99;71.85;100440.25;1618860;88;25878;-72
2022/01/22 09:25:15;;;;;;;3.42;2.02;;;;;;;0.90;71.56;100440.34;1621099;88;27397;-73
2022/01/22 09:27:40;;;;;;;4.05;2.17;;;;;;;0.79;71.09;100442.57;1648474;85;25690;-73
2022/01/22 09:30:09;;;;;;;4.45;2.42;;;;;;;0.69;71.33;100446.65;1679671;84;25698;-74
2022/01/22 09:32:35;;;;;;;4.95;2.77;;;;;;;0.64;71.48;100449.75;1690253;84;26183;-73
2022/01/22 09:35:02;;;;;;;20.05;10.43;;;;;;;0.58;70.66;100450.70;1689416;84;25735;-73
2022/01/22 09:37:28;;;;;;;9.65;3.95;;;;;;;0.49;70.67;100459.59;1689609;84;27299;-73
2022/01/22 09:39:55;;;;;;;3.65;2.20;;;;;;;0.43;70.84;100468.55;1689424;84;25567;-73
2022/01/22 09:42:21;;;;;;;3.65;2.00;;;;;;;0.40;70.33;100466.35;1689368;84;25731;-73
2022/01/22 09:44:47;;;;;;;4.17;2.37;;;;;;;0.32;70.51;100460.37;1689422;84;25933;-73
2022/01/22 09:47:19;;;;;;;3.98;2.45;;;;;;;0.27;70.47;100464.76;1689603;84;25329;-74
2022/01/22 09:49:46;;;;;;;3.75;2.20;;;;;;;0.23;70.37;100470.28;1689267;84;27315;-73
2022/01/22 09:52:14;;;;;;;5.22;2.35;;;;;;;0.25;70.36;100474.84;1689495;84;25566;-73
2022/01/22 09:54:40;;;;;;;2.67;2.17;;;;;;;0.25;70.24;100487.61;1689489;84;26350;-73
2022/01/22 09:57:09;;;;;;;6.10;2.62;;;;;;;0.20;69.85;100502.67;1689242;84;25637;-73
2022/01/22 09:59:36;;;;;;;3.90;2.22;;;;;;;0.15;69.68;100516.66;1677234;84;25699;-73
2022/01/22 10:02:17;;;;;;;3.83;2.35;;;;;;;0.07;69.65;100511.20;1689619;84;27463;-74
2022/01/22 10:04:48;;;;;;;4.72;2.70;;;;;;;0.02;69.83;100514.25;1687568;84;26284;-73
2022/01/22 10:07:18;;;;;;;3.80;2.40;;;;;;;0.00;70.06;100527.80;1689690;84;25544;-73
2022/01/22 10:10:03;;;;;;;4.65;2.60;;;;;;;-0.02;70.06;100523.22;1709940;82;25632;-73
2022/01/22 10:12:31;;;;;;;5.47;3.00;;;;;;;-0.03;70.20;100528.27;1691388;84;25589;-72
2022/01/22 10:15:17;;;;;;;5.17;2.47;;;;;;;-0.01;70.23;100523.52;1672283;84;26901;-73
2022/01/22 10:17:54;;;;;;;3.83;2.30;;;;;;;-0.04;69.90;100526.11;1698154;84;25395;-72
2022/01/22 10:20:27;;;;;;;4.92;2.30;;;;;;;-0.02;70.01;100535.19;1698000;84;25704;-71
2022/01/22 10:23:10;;;;;;;5.78;2.83;;;;;;;0.01;70.10;100526.75;1698211;84;25774;-71
2022/01/22 10:25:45;;;;;;;5.33;2.83;;;;;;;0.07;69.95;100523.66;1698368;84;25621;-71
2022/01/22 10:28:22;;;;;;;4.75;2.70;;;;;;;0.09;69.79;100525.06;1698151;84;28350;-74
2022/01/22 10:30:46;;;;;;;4.72;2.52;;;;;;;0.07;69.58;100528.98;1697888;84;25664;-72
2022/01/22 10:33:26;;;;;;;4.90;2.95;;;;;;;0.07;69.57;100527.66;1699088;84;25742;-72
2022/01/22 10:35:49;;;;;;;5.70;3.02;;;;;;;0.04;69.26;100542.25;1698213;84;25680;-73
2022/01/22 10:38:21;;;;;;;5.45;2.92;;;;;;;0.03;69.17;100555.24;1699286;84;25557;-72
2022/01/22 10:40:53;;;;;;;5.92;2.85;;;;;;;0.02;68.97;100561.63;1699203;84;27380;-72
2022/01/22 10:43:32;;;;;;;3.20;2.22;;;;;;;0.00;69.02;100570.36;1698999;84;25748;-71
2022/01/22 10:48:54;;;;;;;10.05;4.78;;;;;;;0.06;68.58;100589.36;1698300;84;25765;-73
2022/01/22 10:54:11;;;;;;;3.75;2.40;;;;;;;0.24;68.57;100579.13;1699527;84;27648;-73
2022/01/22 10:56:41;;;;;;;4.50;2.20;;;;;;;0.35;68.11;100590.80;1699503;84;25749;-73
2022/01/22 10:59:17;;;;;;;3.10;1.98;;;;;;;0.50;68.29;100582.33;1699460;84;25916;-74
2022/01/22 11:01:59;;;;;;;3.83;1.77;;;;;;;1.60;70.96;100584.36;1699588;84;25639;-73
2022/01/22 11:04:40;;;;;;;4.90;2.47;;;;;;;2.39;68.72;100595.91;1699439;84;25751;-74
2022/01/22 11:07:10;;;;;;;3.42;2.45;;;;;;;2.82;66.95;100598.31;1699663;84;27335;-73
2022/01/22 11:09:36;;;;;;;3.47;2.05;;;;;;;3.24;66.03;100600.38;1699512;84;25715;-73
2022/01/22 11:12:06;;;;;;;3.50;2.30;;;;;;;4.39;67.81;100603.13;1699372;84;25642;-73
2022/01/22 11:14:37;;;;;;;5.47;2.40;;;;;;;5.85;66.08;100595.94;1699350;84;25687;-73
2022/01/22 11:17:06;;;;;;;4.95;2.58;;;;;;;7.17;65.40;100599.84;1699457;84;25492;-72
2022/01/22 11:19:34;;;;;;;3.15;2.20;;;;;;;7.45;61.39;100606.37;1711088;83;28089;-72
2022/01/22 11:22:10;;;;;;;3.47;2.22;;;;;;;8.49;61.07;100609.77;1711789;83;27209;-70
2022/01/22 11:24:41;;;;;;;4.62;3.00;;;;;;;9.62;59.82;100605.57;1711755;83;25761;-71
2022/01/22 11:27:11;;;;;;;6.25;4.03;;;;;;;10.03;57.22;100608.14;1711702;83;26156;-70
2022/01/22 11:29:55;;;;;;;9.93;5.45;;;;;;;10.05;55.06;100617.54;1711777;83;25671;-71
2022/01/22 11:32:29;;;;;;;4.58;2.87;;;;;;;10.00;54.65;100618.98;1711865;83;29495;-71
2022/01/22 11:35:03;;;;;;;4.75;3.30;;;;;;;10.38;53.65;100616.71;1709205;83;25817;-71
2022/01/22 11:37:34;;;;;;;3.47;2.65;;;;;;;10.40;53.34;100615.86;1711866;83;25750;-71
2022/01/22 11:40:20;;;;;;;5.40;3.27;;;;;;;10.73;53.43;100619.27;1711888;83;25650;-70
2022/01/22 11:43:07;;;;;;;5.00;3.80;;;;;;;10.93;52.85;100621.30;1706925;83;25612;-71
2022/01/22 11:45:51;;;;;;;6.70;3.72;;;;;;;11.08;52.07;100622.32;1685351;83;27237;-69
2022/01/22 11:48:25;;;;;;;5.53;3.67;;;;;;;10.85;50.85;100632.30;1711258;83;25771;-70
2022/01/22 11:50:56;;;;;;;5.33;3.50;;;;;;;10.47;50.50;100629.78;1711932;83;25398;-70
2022/01/22 11:53:37;;;;;;;4.45;3.42;;;;;;;10.15;49.47;100644.13;1718613;83;26377;-69
2022/01/22 11:56:19;;;;;;;6.53;3.50;;;;;;;10.23;50.74;100651.55;1722366;83;25705;-72
2022/01/22 11:59:04;;;;;;;6.67;3.95;;;;;;;9.92;48.73;100653.43;1722737;82;27322;-71
2022/01/22 12:01:52;;;;;;;5.57;3.80;;;;;;;9.57;49.19;100662.36;1722765;83;25686;-71
2022/01/22 12:04:23;;;;;;;6.10;4.08;;;;;;;9.31;49.82;100657.33;1722490;83;25712;-69
2022/01/22 12:07:11;;;;;;;7.00;3.70;;;;;;;9.78;50.94;100660.70;1722564;83;26588;-69
2022/01/22 12:15:45;;;;;;;4.12;2.62;;;;;;;10.16;47.54;100665.45;1683716;84;25722;-72
2022/01/22 12:18:16;;;;;;;5.37;3.45;;;;;;;9.27;46.89;100685.98;1683609;85;25370;-72
2022/01/22 12:23:21;;;;;;;7.45;3.40;;;;;;;8.10;47.34;100691.52;1660594;85;25634;-72
2022/01/22 12:25:50;;;;;;;5.30;4.17;;;;;;;7.71;48.56;100695.03;1680188;85;28029;-72
2022/01/22 12:28:45;;;;;;;4.47;3.02;;;;;;;7.99;49.45;100692.70;1683608;85;25833;-73
2022/01/22 12:31:16;;;;;;;7.05;3.85;;;;;;;8.20;48.98;100690.08;1681136;85;25730;-72
2022/01/22 12:33:53;;;;;;;4.10;3.08;;;;;;;8.00;48.27;100696.47;1683857;85;26323;-72
2022/01/22 12:36:36;;;;;;;6.12;3.85;;;;;;;8.22;48.89;100702.75;1683848;85;25845;-72
2022/01/22 12:39:11;;;;;;;6.75;3.92;;;;;;;8.27;48.16;100702.43;1658954;85;27699;-72
2022/01/22 12:41:57;;;;;;;6.70;3.80;;;;;;;8.59;48.70;100709.42;1683521;85;26428;-72
2022/01/22 12:44:27;;;;;;;11.63;6.65;;;;;;;9.00;47.99;100723.58;1673047;85;25744;-72
2022/01/22 12:46:48;;;;;;;21.30;11.75;;;;;;;8.43;46.65;100719.29;1659016;85;26093;-73
2022/01/22 12:49:16;;;;;;;7.28;4.00;;;;;;;7.71;46.63;100719.27;1689033;84;25700;-72
2022/01/22 12:51:42;;;;;;;6.33;4.45;;;;;;;7.07;46.51;100724.44;1700774;84;28013;-72
2022/01/22 12:54:09;;;;;;;6.45;4.45;;;;;;;6.97;48.26;100723.12;1694324;84;25386;-72
2022/01/22 12:59:08;;;;;;;5.78;4.00;;;;;;;7.86;49.40;100733.98;1693353;84;26358;-71
2022/01/22 13:01:38;;;;;;;4.22;3.60;;;;;;;7.80;48.77;100738.36;1692884;84;25464;-71
2022/01/22 13:04:08;;;;;;;7.10;4.42;;;;;;;7.54;47.64;100740.38;1677446;84;27236;-72
2022/01/22 13:06:51;;;;;;;6.17;3.50;;;;;;;7.21;46.74;100737.31;1693171;84;25672;-71
2022/01/22 13:09:16;;;;;;;4.60;3.27;;;;;;;6.94;47.11;100747.88;1693103;84;25603;-72
2022/01/22 13:11:52;;;;;;;6.50;3.80;;;;;;;6.88;47.84;100753.02;1693329;84;25823;-72
2022/01/22 13:14:30;;;;;;;8.13;5.15;;;;;;;6.99;47.64;100753.23;1693292;84;25630;-71